First Ferry Viii — VRS4306 — position and weather

sailwx.info

Track history (hours):
 
Tides and Currents Weather Stations Pressure Air Temp Water Temp Dewpoint Dewpoint Depression Visibility Wind Speed Wind Dir Waves Ship Positions

First Ferry Viii

Last reported at 2015-Sep-01 23:08 UTC. Time now 2015-Sep-02 00:28 UTC.
Position N 22°16' E 114°05'.

Length 36 m; draft 1.8 m.

Type: High speed craft. MMSI: 477995030.

Date/timePositionNaut miles runAvg speedWind from/ knotsBaromVisibWave heightAir tempDewpointWater temp
2015-Sep-01 23:08N 22°16' E 114°05'711.4
2015-Sep-01 22:33N 22°18' E 114°12'1 0.6
2015-Sep-01 21:33N 22°19' E 114°12'0 0.0
2015-Sep-01 20:33N 22°19' E 114°12'0 0.0
2015-Sep-01 19:33N 22°19' E 114°12'0 0.0
2015-Sep-01 18:33N 22°19' E 114°12'0 0.0
2015-Sep-01 17:33N 22°19' E 114°12'0 0.0
2015-Sep-01 16:33N 22°19' E 114°12'0 0.0
2015-Sep-01 15:33N 22°19' E 114°12'0 0.0
2015-Sep-01 14:33N 22°19' E 114°12'0 0.0
2015-Sep-01 13:33N 22°19' E 114°12'0 0.0
2015-Sep-01 12:33N 22°19' E 114°12'7 5.8
2015-Sep-01 11:17N 22°16' E 114°05'5 6.7
2015-Sep-01 10:33N 22°17' E 114°10'0 0.0
2015-Sep-01 08:33N 22°17' E 114°10'0 0.0
2015-Sep-01 06:33N 22°17' E 114°10'4 2.7
2015-Sep-01 05:03N 22°17' E 114°05'4 8.2
2015-Sep-01 04:33N 22°17' E 114°10'0 0.0
2015-Sep-01 02:33N 22°17' E 114°10'3 2.5
2015-Sep-01 01:33N 22°20' E 114°09'5 2.1
2015-Aug-31 23:08N 22°16' E 114°05'711.8
2015-Aug-31 22:33N 22°18' E 114°12'1 0.9
2015-Aug-31 21:34N 22°19' E 114°12'0 0.0
2015-Aug-31 20:33N 22°19' E 114°12'0 0.0
2015-Aug-31 19:34N 22°19' E 114°12'0 0.0
2015-Aug-31 18:33N 22°19' E 114°12'0 0.0
2015-Aug-31 17:34N 22°19' E 114°12'0 0.0
2015-Aug-31 16:33N 22°19' E 114°12'0 0.0
2015-Aug-31 15:34N 22°19' E 114°12'0 0.0
2015-Aug-31 14:33N 22°19' E 114°12'0 0.0
2015-Aug-31 13:33N 22°19' E 114°12'9 4.5
2015-Aug-31 11:27N 22°16' E 114°02'6 7.0
2015-Aug-31 10:34N 22°18' E 114°09'4 3.9
2015-Aug-31 09:29N 22°17' E 114°04'3 3.7
2015-Aug-31 08:33N 22°17' E 114°08'3 2.9
2015-Aug-31 07:28N 22°17' E 114°05'5 5.7
2015-Aug-31 06:33N 22°17' E 114°10'5 3.7
2015-Aug-31 05:05N 22°16' E 114°04'5 9.9
2015-Aug-31 04:33N 22°17' E 114°10'0 0.0
2015-Aug-31 02:33N 22°17' E 114°10'3 2.5
2015-Aug-31 01:33N 22°20' E 114°09'5 1.9
2015-Aug-30 23:08N 22°16' E 114°05'611.3
2015-Aug-30 22:33N 22°19' E 114°12'1 0.5
2015-Aug-30 21:33N 22°19' E 114°12'0 0.0
2015-Aug-30 20:33N 22°19' E 114°12'0 0.0
2015-Aug-30 19:33N 22°19' E 114°12'0 0.0
2015-Aug-30 18:33N 22°19' E 114°12'0 0.0
2015-Aug-30 17:33N 22°19' E 114°12'0 0.0
2015-Aug-30 16:33N 22°19' E 114°12'0 0.0
2015-Aug-30 15:33N 22°19' E 114°12'0 0.0
2015-Aug-30 14:33N 22°19' E 114°12'0 0.0
2015-Aug-30 13:33N 22°19' E 114°12'3 2.6
2015-Aug-30 12:34N 22°17' E 114°09'4 3.1
2015-Aug-30 11:17N 22°16' E 114°05'5 7.6
2015-Aug-30 10:34N 22°18' E 114°11'1 1.4
2015-Aug-30 09:33N 22°17' E 114°10'6 4.8
2015-Aug-30 08:21N 22°15' E 114°04'7 8.1
2015-Aug-30 07:33N 22°17' E 114°10'2 2.2
2015-Aug-30 06:34N 22°19' E 114°12'0 0.0
2015-Aug-30 05:33N 22°19' E 114°12'0 0.0
2015-Aug-30 04:34N 22°19' E 114°12'0 0.0
2015-Aug-30 03:34N 22°19' E 114°12'0 0.0
2015-Aug-30 02:33N 22°19' E 114°12'3 2.7
2015-Aug-30 01:34N 22°17' E 114°09'4 3.4
2015-Aug-30 00:17N 22°16' E 114°05'5 6.2
2015-Aug-29 23:34N 22°17' E 114°10'0 0.1
2015-Aug-29 22:34N 22°17' E 114°10'0 0.0
2015-Aug-29 15:34N 22°17' E 114°10'5 4.6
2015-Aug-29 14:22N 22°16' E 114°04'5 6.8
2015-Aug-29 13:33N 22°17' E 114°10'5 4.1
2015-Aug-29 12:19N 22°16' E 114°04'4 5.9
2015-Aug-29 11:34N 22°18' E 114°09'2 1.6
2015-Aug-29 10:33N 22°17' E 114°07'2 1.2
2015-Aug-29 08:33N 22°17' E 114°10'5 3.8
2015-Aug-29 07:08N 22°15' E 114°04'6 9.7
2015-Aug-29 06:33N 22°17' E 114°10'2 2.4
2015-Aug-29 05:34N 22°19' E 114°12'0 0.0
2015-Aug-29 04:34N 22°19' E 114°12'0 0.2
2015-Aug-29 03:34N 22°19' E 114°12'3 3.0
2015-Aug-29 02:33N 22°20' E 114°09'2 1.2
2015-Aug-29 00:34N 22°17' E 114°10'6 5.6
2015-Aug-28 23:30N 22°17' E 114°03'1 0.2
2015-Aug-28 16:04N 22°16' E 114°04'510.3
2015-Aug-28 15:34N 22°17' E 114°10'4 3.2
2015-Aug-28 14:17N 22°17' E 114°05'4 5.7
2015-Aug-28 13:33N 22°17' E 114°10'5 3.9
2015-Aug-28 12:20N 22°16' E 114°05'4 5.8
2015-Aug-28 11:33N 22°17' E 114°09'3 2.8
2015-Aug-28 10:33N 22°17' E 114°06'3 1.6
2015-Aug-28 08:33N 22°17' E 114°10'0 0.0
2015-Aug-28 06:33N 22°17' E 114°10'3 2.6
2015-Aug-28 05:33N 22°19' E 114°12'0 0.0
2015-Aug-28 04:33N 22°19' E 114°12'0 0.0
2015-Aug-28 03:34N 22°19' E 114°12'0 0.0
2015-Aug-28 02:34N 22°19' E 114°12'3 1.3
2015-Aug-28 00:33N 22°17' E 114°09'7 6.8
2015-Aug-27 23:33N 22°16' E 114°02'7 0.9
2015-Aug-27 15:34N 22°17' E 114°10'5 4.1
2015-Aug-27 14:19N 22°16' E 114°04'5 6.7
2015-Aug-27 13:34N 22°17' E 114°10'5 4.2
2015-Aug-27 12:21N 22°16' E 114°04'4 5.6
2015-Aug-27 11:34N 22°18' E 114°09'2 2.1
2015-Aug-27 10:33N 22°17' E 114°06'2 1.5
2015-Aug-27 09:05N 22°16' E 114°05'5 9.3
2015-Aug-27 08:33N 22°17' E 114°10'5 3.1
2015-Aug-27 07:03N 22°16' E 114°05'5 9.4
2015-Aug-27 06:33N 22°17' E 114°10'3 2.6
2015-Aug-27 05:34N 22°19' E 114°12'0 0.0
2015-Aug-27 04:34N 22°19' E 114°12'0 0.0
2015-Aug-27 03:34N 22°19' E 114°12'3 2.7
2015-Aug-27 02:33N 22°20' E 114°09'2 1.2
2015-Aug-27 00:34N 22°17' E 114°10'7 7.2
2015-Aug-26 23:33N 22°16' E 114°02'2 0.2
2015-Aug-26 16:08N 22°15' E 114°03'611.3
2015-Aug-26 15:33N 22°17' E 114°10'5 4.0
2015-Aug-26 14:20N 22°16' E 114°05'5 6.4
2015-Aug-26 13:34N 22°17' E 114°10'5 3.9
2015-Aug-26 12:19N 22°16' E 114°05'3 1.9
2015-Aug-26 10:33N 22°18' E 114°08'2 0.9
2015-Aug-26 08:33N 22°17' E 114°10'0 0.0
2015-Aug-26 06:33N 22°17' E 114°10'3 2.6
2015-Aug-26 05:33N 22°19' E 114°12'0 0.0
2015-Aug-26 04:33N 22°19' E 114°12'0 0.0
2015-Aug-26 03:33N 22°19' E 114°12'0 0.0
2015-Aug-26 02:33N 22°19' E 114°12'3 1.4
2015-Aug-26 00:33N 22°17' E 114°09'7 6.9
2015-Aug-25 23:33N 22°16' E 114°02'2 0.3
2015-Aug-25 16:05N 22°15' E 114°04'510.4
2015-Aug-25 15:33N 22°17' E 114°10'4 3.0
2015-Aug-25 14:16N 22°17' E 114°06'4 5.4
2015-Aug-25 13:33N 22°17' E 114°10'5 4.3
2015-Aug-25 12:21N 22°16' E 114°04'4 5.2
2015-Aug-25 11:34N 22°18' E 114°08'2 1.5
2015-Aug-25 10:32N 22°17' E 114°06'3 3.1
2015-Aug-25 09:31N 22°20' E 114°09'1 0.5
2015-Aug-25 08:33N 22°19' E 114°09'1 0.5
2015-Aug-25 07:32N 22°20' E 114°09'0 0.0
2015-Aug-25 06:31N 22°20' E 114°09'0 0.0
2015-Aug-25 05:30N 22°20' E 114°09'0 0.0
2015-Aug-25 04:33N 22°20' E 114°09'3 2.0
2015-Aug-25 03:14N 22°18' E 114°07'3 3.1
2015-Aug-25 02:24N 22°20' E 114°09'0 0.0
2015-Aug-25 01:33N 22°20' E 114°09'2 2.2
2015-Aug-25 00:34N 22°18' E 114°09'7 6.6
2015-Aug-24 23:33N 22°16' E 114°02'7 7.3
2015-Aug-24 22:33N 22°19' E 114°09'1 0.7
2015-Aug-24 21:32N 22°20' E 114°09'0 0.0
2015-Aug-24 20:22N 22°20' E 114°09'0 0.0
2015-Aug-24 19:33N 22°20' E 114°09'1 0.7
2015-Aug-24 18:33N 22°19' E 114°09'1 0.7
2015-Aug-24 17:33N 22°20' E 114°09'0 0.0
2015-Aug-24 16:33N 22°20' E 114°09'3 2.5
2015-Aug-24 15:33N 22°17' E 114°10'4 3.4
2015-Aug-24 14:18N 22°16' E 114°05'4 5.7
2015-Aug-24 13:33N 22°17' E 114°10'4 2.9
2015-Aug-24 12:16N 22°17' E 114°06'1 1.3
2015-Aug-24 11:32N 22°17' E 114°07'1 1.3
2015-Aug-24 10:33N 22°18' E 114°08'2 0.8
2015-Aug-24 08:33N 22°17' E 114°10'3 2.4
2015-Aug-24 07:30N 22°20' E 114°09'0 0.0
2015-Aug-24 06:33N 22°20' E 114°09'0 0.0
2015-Aug-24 05:31N 22°20' E 114°09'0 0.0
2015-Aug-24 04:25N 22°20' E 114°09'0 0.0
2015-Aug-24 03:27N 22°20' E 114°09'0 0.0
2015-Aug-24 02:32N 22°20' E 114°09'2 1.2
2015-Aug-24 00:33N 22°17' E 114°09'7 6.9
2015-Aug-23 23:33N 22°16' E 114°02'2 0.3
2015-Aug-23 16:13N 22°16' E 114°04'5 7.7
2015-Aug-23 15:34N 22°17' E 114°10'5 3.9
2015-Aug-23 14:19N 22°16' E 114°05'5 6.3
2015-Aug-23 13:33N 22°17' E 114°10'5 4.1
2015-Aug-23 12:19N 22°16' E 114°04'5 6.7
2015-Aug-23 11:33N 22°17' E 114°10'5 3.9
2015-Aug-23 10:19N 22°16' E 114°05'5 6.9
2015-Aug-23 09:33N 22°17' E 114°10'5 3.6
2015-Aug-23 08:11N 22°16' E 114°05'4 7.0
2015-Aug-23 07:33N 22°17' E 114°10'5 3.6
2015-Aug-23 06:12N 22°16' E 114°05'5 7.6
2015-Aug-23 05:33N 22°17' E 114°10'5 3.2
2015-Aug-23 04:04N 22°16' E 114°05'5 9.1
2015-Aug-23 03:34N 22°17' E 114°09'5 3.5
2015-Aug-23 02:14N 22°16' E 114°05'5 8.0
2015-Aug-23 01:33N 22°17' E 114°10'0 0.2
2015-Aug-23 00:33N 22°17' E 114°10'0 0.0
2015-Aug-22 23:33N 22°17' E 114°10'  
Track history (hours):
 
Tides and Currents Weather Stations Pressure Air Temp Water Temp Dewpoint Dewpoint Depression Visibility Wind Speed Wind Dir Waves Ship Positions

First Ferry Viii

Last reported at 2015-Sep-01 23:08 UTC. Time now 2015-Sep-02 00:28 UTC.
Position N 22°16' E 114°05'.

Length 36 m; draft 1.8 m.

Type: High speed craft. MMSI: 477995030.

Date/timePositionNaut miles runAvg speedWind from/ knotsBaromVisibWave heightAir tempDewpointWater temp
2015-Sep-01 23:08N 22°16' E 114°05'711.4
2015-Sep-01 22:33N 22°18' E 114°12'1 0.6
2015-Sep-01 21:33N 22°19' E 114°12'0 0.0
2015-Sep-01 20:33N 22°19' E 114°12'0 0.0
2015-Sep-01 19:33N 22°19' E 114°12'0 0.0
2015-Sep-01 18:33N 22°19' E 114°12'0 0.0
2015-Sep-01 17:33N 22°19' E 114°12'0 0.0
2015-Sep-01 16:33N 22°19' E 114°12'0 0.0
2015-Sep-01 15:33N 22°19' E 114°12'0 0.0
2015-Sep-01 14:33N 22°19' E 114°12'0 0.0
2015-Sep-01 13:33N 22°19' E 114°12'0 0.0
2015-Sep-01 12:33N 22°19' E 114°12'7 5.8
2015-Sep-01 11:17N 22°16' E 114°05'5 6.7
2015-Sep-01 10:33N 22°17' E 114°10'0 0.0
2015-Sep-01 08:33N 22°17' E 114°10'0 0.0
2015-Sep-01 06:33N 22°17' E 114°10'4 2.7
2015-Sep-01 05:03N 22°17' E 114°05'4 8.2
2015-Sep-01 04:33N 22°17' E 114°10'0 0.0
2015-Sep-01 02:33N 22°17' E 114°10'3 2.5
2015-Sep-01 01:33N 22°20' E 114°09'5 2.1
2015-Aug-31 23:08N 22°16' E 114°05'711.8
2015-Aug-31 22:33N 22°18' E 114°12'1 0.9
2015-Aug-31 21:34N 22°19' E 114°12'0 0.0
2015-Aug-31 20:33N 22°19' E 114°12'0 0.0
2015-Aug-31 19:34N 22°19' E 114°12'0 0.0
2015-Aug-31 18:33N 22°19' E 114°12'0 0.0
2015-Aug-31 17:34N 22°19' E 114°12'0 0.0
2015-Aug-31 16:33N 22°19' E 114°12'0 0.0
2015-Aug-31 15:34N 22°19' E 114°12'0 0.0
2015-Aug-31 14:33N 22°19' E 114°12'0 0.0
2015-Aug-31 13:33N 22°19' E 114°12'9 4.5
2015-Aug-31 11:27N 22°16' E 114°02'6 7.0
2015-Aug-31 10:34N 22°18' E 114°09'4 3.9
2015-Aug-31 09:29N 22°17' E 114°04'3 3.7
2015-Aug-31 08:33N 22°17' E 114°08'3 2.9
2015-Aug-31 07:28N 22°17' E 114°05'5 5.7
2015-Aug-31 06:33N 22°17' E 114°10'5 3.7
2015-Aug-31 05:05N 22°16' E 114°04'5 9.9
2015-Aug-31 04:33N 22°17' E 114°10'0 0.0
2015-Aug-31 02:33N 22°17' E 114°10'3 2.5
2015-Aug-31 01:33N 22°20' E 114°09'5 1.9
2015-Aug-30 23:08N 22°16' E 114°05'611.3
2015-Aug-30 22:33N 22°19' E 114°12'1 0.5
2015-Aug-30 21:33N 22°19' E 114°12'0 0.0
2015-Aug-30 20:33N 22°19' E 114°12'0 0.0
2015-Aug-30 19:33N 22°19' E 114°12'0 0.0
2015-Aug-30 18:33N 22°19' E 114°12'0 0.0
2015-Aug-30 17:33N 22°19' E 114°12'0 0.0
2015-Aug-30 16:33N 22°19' E 114°12'0 0.0
2015-Aug-30 15:33N 22°19' E 114°12'0 0.0
2015-Aug-30 14:33N 22°19' E 114°12'0 0.0
2015-Aug-30 13:33N 22°19' E 114°12'3 2.6
2015-Aug-30 12:34N 22°17' E 114°09'4 3.1
2015-Aug-30 11:17N 22°16' E 114°05'5 7.6
2015-Aug-30 10:34N 22°18' E 114°11'1 1.4
2015-Aug-30 09:33N 22°17' E 114°10'6 4.8
2015-Aug-30 08:21N 22°15' E 114°04'7 8.1
2015-Aug-30 07:33N 22°17' E 114°10'2 2.2
2015-Aug-30 06:34N 22°19' E 114°12'0 0.0
2015-Aug-30 05:33N 22°19' E 114°12'0 0.0
2015-Aug-30 04:34N 22°19' E 114°12'0 0.0
2015-Aug-30 03:34N 22°19' E 114°12'0 0.0
2015-Aug-30 02:33N 22°19' E 114°12'3 2.7
2015-Aug-30 01:34N 22°17' E 114°09'4 3.4
2015-Aug-30 00:17N 22°16' E 114°05'5 6.2
2015-Aug-29 23:34N 22°17' E 114°10'0 0.1
2015-Aug-29 22:34N 22°17' E 114°10'0 0.0
2015-Aug-29 15:34N 22°17' E 114°10'5 4.6
2015-Aug-29 14:22N 22°16' E 114°04'5 6.8
2015-Aug-29 13:33N 22°17' E 114°10'5 4.1
2015-Aug-29 12:19N 22°16' E 114°04'4 5.9
2015-Aug-29 11:34N 22°18' E 114°09'2 1.6
2015-Aug-29 10:33N 22°17' E 114°07'2 1.2
2015-Aug-29 08:33N 22°17' E 114°10'5 3.8
2015-Aug-29 07:08N 22°15' E 114°04'6 9.7
2015-Aug-29 06:33N 22°17' E 114°10'2 2.4
2015-Aug-29 05:34N 22°19' E 114°12'0 0.0
2015-Aug-29 04:34N 22°19' E 114°12'0 0.2
2015-Aug-29 03:34N 22°19' E 114°12'3 3.0
2015-Aug-29 02:33N 22°20' E 114°09'2 1.2
2015-Aug-29 00:34N 22°17' E 114°10'6 5.6
2015-Aug-28 23:30N 22°17' E 114°03'1 0.2
2015-Aug-28 16:04N 22°16' E 114°04'510.3
2015-Aug-28 15:34N 22°17' E 114°10'4 3.2
2015-Aug-28 14:17N 22°17' E 114°05'4 5.7
2015-Aug-28 13:33N 22°17' E 114°10'5 3.9
2015-Aug-28 12:20N 22°16' E 114°05'4 5.8
2015-Aug-28 11:33N 22°17' E 114°09'3 2.8
2015-Aug-28 10:33N 22°17' E 114°06'3 1.6
2015-Aug-28 08:33N 22°17' E 114°10'0 0.0
2015-Aug-28 06:33N 22°17' E 114°10'3 2.6
2015-Aug-28 05:33N 22°19' E 114°12'0 0.0
2015-Aug-28 04:33N 22°19' E 114°12'0 0.0
2015-Aug-28 03:34N 22°19' E 114°12'0 0.0
2015-Aug-28 02:34N 22°19' E 114°12'3 1.3
2015-Aug-28 00:33N 22°17' E 114°09'7 6.8
2015-Aug-27 23:33N 22°16' E 114°02'7 0.9
2015-Aug-27 15:34N 22°17' E 114°10'5 4.1
2015-Aug-27 14:19N 22°16' E 114°04'5 6.7
2015-Aug-27 13:34N 22°17' E 114°10'5 4.2
2015-Aug-27 12:21N 22°16' E 114°04'4 5.6
2015-Aug-27 11:34N 22°18' E 114°09'2 2.1
2015-Aug-27 10:33N 22°17' E 114°06'2 1.5
2015-Aug-27 09:05N 22°16' E 114°05'5 9.3
2015-Aug-27 08:33N 22°17' E 114°10'5 3.1
2015-Aug-27 07:03N 22°16' E 114°05'5 9.4
2015-Aug-27 06:33N 22°17' E 114°10'3 2.6
2015-Aug-27 05:34N 22°19' E 114°12'0 0.0
2015-Aug-27 04:34N 22°19' E 114°12'0 0.0
2015-Aug-27 03:34N 22°19' E 114°12'3 2.7
2015-Aug-27 02:33N 22°20' E 114°09'2 1.2
2015-Aug-27 00:34N 22°17' E 114°10'7 7.2
2015-Aug-26 23:33N 22°16' E 114°02'2 0.2
2015-Aug-26 16:08N 22°15' E 114°03'611.3
2015-Aug-26 15:33N 22°17' E 114°10'5 4.0
2015-Aug-26 14:20N 22°16' E 114°05'5 6.4
2015-Aug-26 13:34N 22°17' E 114°10'5 3.9
2015-Aug-26 12:19N 22°16' E 114°05'3 1.9
2015-Aug-26 10:33N 22°18' E 114°08'2 0.9
2015-Aug-26 08:33N 22°17' E 114°10'0 0.0
2015-Aug-26 06:33N 22°17' E 114°10'3 2.6
2015-Aug-26 05:33N 22°19' E 114°12'0 0.0
2015-Aug-26 04:33N 22°19' E 114°12'0 0.0
2015-Aug-26 03:33N 22°19' E 114°12'0 0.0
2015-Aug-26 02:33N 22°19' E 114°12'3 1.4
2015-Aug-26 00:33N 22°17' E 114°09'7 6.9
2015-Aug-25 23:33N 22°16' E 114°02'2 0.3
2015-Aug-25 16:05N 22°15' E 114°04'510.4
2015-Aug-25 15:33N 22°17' E 114°10'4 3.0
2015-Aug-25 14:16N 22°17' E 114°06'4 5.4
2015-Aug-25 13:33N 22°17' E 114°10'5 4.3
2015-Aug-25 12:21N 22°16' E 114°04'4 5.2
2015-Aug-25 11:34N 22°18' E 114°08'2 1.5
2015-Aug-25 10:32N 22°17' E 114°06'3 3.1
2015-Aug-25 09:31N 22°20' E 114°09'1 0.5
2015-Aug-25 08:33N 22°19' E 114°09'1 0.5
2015-Aug-25 07:32N 22°20' E 114°09'0 0.0
2015-Aug-25 06:31N 22°20' E 114°09'0 0.0
2015-Aug-25 05:30N 22°20' E 114°09'0 0.0
2015-Aug-25 04:33N 22°20' E 114°09'3 2.0
2015-Aug-25 03:14N 22°18' E 114°07'3 3.1
2015-Aug-25 02:24N 22°20' E 114°09'0 0.0
2015-Aug-25 01:33N 22°20' E 114°09'2 2.2
2015-Aug-25 00:34N 22°18' E 114°09'7 6.6
2015-Aug-24 23:33N 22°16' E 114°02'7 7.3
2015-Aug-24 22:33N 22°19' E 114°09'1 0.7
2015-Aug-24 21:32N 22°20' E 114°09'0 0.0
2015-Aug-24 20:22N 22°20' E 114°09'0 0.0
2015-Aug-24 19:33N 22°20' E 114°09'1 0.7
2015-Aug-24 18:33N 22°19' E 114°09'1 0.7
2015-Aug-24 17:33N 22°20' E 114°09'0 0.0
2015-Aug-24 16:33N 22°20' E 114°09'3 2.5
2015-Aug-24 15:33N 22°17' E 114°10'4 3.4
2015-Aug-24 14:18N 22°16' E 114°05'4 5.7
2015-Aug-24 13:33N 22°17' E 114°10'4 2.9
2015-Aug-24 12:16N 22°17' E 114°06'1 1.3
2015-Aug-24 11:32N 22°17' E 114°07'1 1.3
2015-Aug-24 10:33N 22°18' E 114°08'2 0.8
2015-Aug-24 08:33N 22°17' E 114°10'3 2.4
2015-Aug-24 07:30N 22°20' E 114°09'0 0.0
2015-Aug-24 06:33N 22°20' E 114°09'0 0.0
2015-Aug-24 05:31N 22°20' E 114°09'0 0.0
2015-Aug-24 04:25N 22°20' E 114°09'0 0.0
2015-Aug-24 03:27N 22°20' E 114°09'0 0.0
2015-Aug-24 02:32N 22°20' E 114°09'2 1.2
2015-Aug-24 00:33N 22°17' E 114°09'7 6.9
2015-Aug-23 23:33N 22°16' E 114°02'2 0.3
2015-Aug-23 16:13N 22°16' E 114°04'5 7.7
2015-Aug-23 15:34N 22°17' E 114°10'5 3.9
2015-Aug-23 14:19N 22°16' E 114°05'5 6.3
2015-Aug-23 13:33N 22°17' E 114°10'5 4.1
2015-Aug-23 12:19N 22°16' E 114°04'5 6.7
2015-Aug-23 11:33N 22°17' E 114°10'5 3.9
2015-Aug-23 10:19N 22°16' E 114°05'5 6.9
2015-Aug-23 09:33N 22°17' E 114°10'5 3.6
2015-Aug-23 08:11N 22°16' E 114°05'4 7.0
2015-Aug-23 07:33N 22°17' E 114°10'5 3.6
2015-Aug-23 06:12N 22°16' E 114°05'5 7.6
2015-Aug-23 05:33N 22°17' E 114°10'5 3.2
2015-Aug-23 04:04N 22°16' E 114°05'5 9.1
2015-Aug-23 03:34N 22°17' E 114°09'5 3.5
2015-Aug-23 02:14N 22°16' E 114°05'5 8.0
2015-Aug-23 01:33N 22°17' E 114°10'0 0.2
2015-Aug-23 00:33N 22°17' E 114°10'0 0.0
2015-Aug-22 23:33N 22°17' E 114°10'  

Dump ship's entire track history